Time;durP1;ratioP1;P1;durP2;ratioP2;P2;SDS_P1;SDS_P2;PMS_P1;PMS_P2;Temp;Humidity;BMP_temperature;BMP_pressure;BME280_temperature;BME280_humidity;BME280_pressure;Samples;Min_cycle;Max_cycle;Signal;HPM_P1;HPM_P2
2021/09/01 00:00:39;;;;;;;12.80;6.88;;;;;;;19.69;81.23;98531.81;5038207;28;20033;-48
2021/09/01 00:03:05;;;;;;;11.45;6.90;;;;;;;19.64;80.26;98513.78;5033249;28;20056;-48
2021/09/01 00:05:31;;;;;;;12.60;7.45;;;;;;;19.76;79.50;98522.38;5031199;28;20417;-49
2021/09/01 00:07:57;;;;;;;10.93;6.15;;;;;;;19.66;79.40;98503.09;5043412;28;20063;-51
2021/09/01 00:10:23;;;;;;;12.35;7.68;;;;;;;19.82;78.37;98516.56;5034488;28;20033;-46
2021/09/01 00:12:49;;;;;;;12.10;7.75;;;;;;;19.82;78.06;98506.84;5031278;28;20050;-47
2021/09/01 00:15:14;;;;;;;15.65;8.13;;;;;;;19.84;77.81;98512.78;5031590;28;20048;-49
2021/09/01 00:17:40;;;;;;;9.82;6.95;;;;;;;19.87;77.48;98506.41;5031312;28;20064;-46
2021/09/01 00:20:08;;;;;;;13.95;8.35;;;;;;;19.88;77.82;98489.63;5030046;28;20083;-47
2021/09/01 00:22:34;;;;;;;10.10;7.93;;;;;;;19.86;79.62;98492.41;5030079;28;20489;-50
2021/09/01 00:25:01;;;;;;;11.75;8.35;;;;;;;19.87;81.33;98494.06;5030798;28;20048;-49
2021/09/01 00:27:26;;;;;;;13.23;8.45;;;;;;;19.87;82.29;98504.63;5030953;28;21548;-52
2021/09/01 00:29:52;;;;;;;11.25;8.07;;;;;;;19.86;83.14;98502.94;5031277;28;20044;-49
2021/09/01 00:32:18;;;;;;;11.15;7.65;;;;;;;19.86;82.20;98496.84;5031304;28;20049;-49
2021/09/01 00:34:43;;;;;;;8.82;6.97;;;;;;;19.88;80.28;98493.09;5031139;28;20041;-46
2021/09/01 00:37:09;;;;;;;13.13;7.85;;;;;;;19.80;79.56;98479.75;5031331;28;20045;-51
2021/09/01 00:39:34;;;;;;;15.23;7.65;;;;;;;19.91;80.09;98484.06;5030613;28;20049;-47
2021/09/01 00:42:03;;;;;;;11.27;7.45;;;;;;;19.83;79.38;98462.84;5031131;28;20051;-47
2021/09/01 00:44:29;;;;;;;12.75;8.02;;;;;;;19.94;80.21;98475.84;5031004;28;20451;-48
2021/09/01 00:46:55;;;;;;;13.18;8.65;;;;;;;19.85;81.13;98461.72;5029351;28;20037;-47
2021/09/01 00:49:21;;;;;;;13.80;8.02;;;;;;;19.96;81.69;98475.72;5030974;28;20056;-48
2021/09/01 00:51:48;;;;;;;12.30;7.60;;;;;;;19.95;81.87;98477.53;5031706;28;20048;-48
2021/09/01 00:54:18;;;;;;;14.30;8.48;;;;;;;19.94;81.86;98477.69;5039851;28;20095;-50
2021/09/01 00:56:50;;;;;;;13.32;8.70;;;;;;;19.91;81.87;98460.31;5036878;28;20033;-48
2021/09/01 00:59:17;;;;;;;12.73;8.85;;;;;;;19.86;82.56;98462.53;5045145;28;20041;-47
2021/09/01 01:01:52;;;;;;;14.75;9.40;;;;;;;19.69;83.40;98445.63;5031689;28;20049;-47
2021/09/01 01:04:18;;;;;;;14.18;8.93;;;;;;;19.72;84.45;98448.00;5030964;28;20532;-48
2021/09/01 01:06:44;;;;;;;15.52;8.10;;;;;;;19.66;84.82;98439.81;5030404;28;20045;-47
2021/09/01 01:09:10;;;;;;;15.10;8.63;;;;;;;19.73;85.12;98433.00;5049102;28;20067;-47
2021/09/01 01:11:58;;;;;;;12.90;8.80;;;;;;;19.70;85.90;98430.63;4967793;28;2049236;-49
2021/09/01 01:14:25;;;;;;;;;;;;;;;19.68;85.71;98436.03;5032102;28;20041;-46
2021/09/01 01:16:50;;;;;;;13.88;8.77;;;;;;;19.63;85.24;98433.00;5030562;28;19916;-47
2021/09/01 01:19:16;;;;;;;14.95;8.77;;;;;;;19.56;85.49;98431.06;5031510;28;20075;-50
2021/09/01 01:21:42;;;;;;;15.65;9.75;;;;;;;19.51;85.84;98434.13;5047259;28;20055;-48
2021/09/01 01:24:08;;;;;;;15.32;9.40;;;;;;;19.35;86.54;98405.66;5034288;28;20119;-48
2021/09/01 01:26:33;;;;;;;18.17;9.40;;;;;;;19.45;87.43;98434.69;5033829;28;20457;-47
2021/09/01 01:29:03;;;;;;;22.75;9.95;;;;;;;19.42;88.37;98427.00;5043149;28;20047;-48
2021/09/01 01:31:29;;;;;;;17.17;10.02;;;;;;;19.34;89.01;98422.44;5034873;28;20045;-47
2021/09/01 01:33:56;;;;;;;14.00;8.45;;;;;;;19.31;88.58;98416.63;5029919;28;20053;-47
2021/09/01 01:36:22;;;;;;;16.83;8.52;;;;;;;19.25;87.47;98420.63;5031100;28;20543;-48
2021/09/01 01:38:47;;;;;;;15.32;8.48;;;;;;;19.21;87.29;98415.78;5031422;28;20091;-51
2021/09/01 01:41:13;;;;;;;12.63;8.13;;;;;;;19.20;86.78;98416.75;5030507;28;20033;-49
2021/09/01 01:43:43;;;;;;;14.38;8.70;;;;;;;19.19;86.73;98410.66;5039093;28;20351;-48
2021/09/01 01:46:09;;;;;;;22.38;10.20;;;;;;;19.19;87.64;98400.09;5031055;28;20034;-47
2021/09/01 01:48:35;;;;;;;15.63;9.35;;;;;;;19.18;88.79;98387.06;5040350;28;20037;-48
2021/09/01 01:51:01;;;;;;;18.73;8.55;;;;;;;19.14;89.29;98383.88;5031147;28;20041;-47
2021/09/01 01:53:39;;;;;;;13.63;8.30;;;;;;;19.09;89.94;98380.00;5064655;28;20374;-47
2021/09/01 01:56:05;;;;;;;13.07;9.05;;;;;;;19.03;90.35;98371.66;5046320;28;20583;-53
2021/09/01 01:58:30;;;;;;;11.45;8.40;;;;;;;18.98;91.23;98370.41;5044119;28;20091;-47
2021/09/01 02:00:56;;;;;;;13.52;8.48;;;;;;;18.92;91.78;98361.25;5046600;28;20041;-50
2021/09/01 02:03:22;;;;;;;15.32;8.27;;;;;;;18.91;92.05;98362.22;5046878;28;20103;-51
2021/09/01 02:05:47;;;;;;;16.45;8.65;;;;;;;18.90;92.21;98360.56;5046887;28;20084;-50
2021/09/01 02:08:13;;;;;;;17.75;9.00;;;;;;;18.81;92.58;98340.31;5045910;28;20091;-52
2021/09/01 02:10:39;;;;;;;13.73;8.52;;;;;;;18.85;92.77;98346.97;5047269;28;20045;-47
2021/09/01 02:13:04;;;;;;;13.40;8.68;;;;;;;18.88;93.07;98354.63;5044630;28;20043;-47
2021/09/01 02:15:30;;;;;;;17.45;8.70;;;;;;;18.88;93.09;98344.06;5027181;28;20127;-48
2021/09/01 02:17:56;;;;;;;16.23;8.68;;;;;;;18.87;93.02;98349.47;5037433;28;20037;-47
2021/09/01 02:20:22;;;;;;;14.95;9.40;;;;;;;18.85;92.96;98346.97;5046754;28;20049;-52
2021/09/01 02:22:48;;;;;;;24.00;9.10;;;;;;;18.83;92.93;98334.91;5046642;28;20068;-50
2021/09/01 02:25:14;;;;;;;14.75;9.15;;;;;;;18.82;93.00;98339.34;5046201;28;20527;-51
2021/09/01 02:27:40;;;;;;;15.35;8.80;;;;;;;18.82;93.26;98331.47;5046058;28;20512;-50
2021/09/01 02:30:08;;;;;;;16.70;8.90;;;;;;;18.84;93.40;98334.75;5045496;28;20477;-49
2021/09/01 02:32:35;;;;;;;17.02;8.68;;;;;;;18.86;93.29;98324.94;5046397;28;20072;-48
2021/09/01 02:35:01;;;;;;;14.80;9.15;;;;;;;18.71;92.84;98299.16;5044852;28;20080;-48
2021/09/01 02:37:26;;;;;;;15.25;8.77;;;;;;;18.88;92.80;98323.00;5045601;28;20088;-48
2021/09/01 02:39:52;;;;;;;16.17;8.68;;;;;;;18.88;91.94;98325.63;5045880;28;20037;-48
2021/09/01 02:42:18;;;;;;;18.20;9.25;;;;;;;18.87;91.56;98329.25;5045207;28;20528;-47
2021/09/01 02:44:44;;;;;;;17.80;9.48;;;;;;;18.78;91.13;98308.16;5046461;28;20029;-46
2021/09/01 02:47:10;;;;;;;22.05;9.65;;;;;;;18.84;91.23;98303.16;5046269;28;20435;-47
2021/09/01 02:49:35;;;;;;;17.15;9.02;;;;;;;18.87;91.42;98310.81;5045921;28;20045;-51
2021/09/01 02:52:01;;;;;;;22.77;9.25;;;;;;;18.89;91.42;98306.22;5045738;28;20057;-48
2021/09/01 02:54:27;;;;;;;17.00;8.85;;;;;;;18.96;90.90;98309.13;5045294;28;20134;-49
2021/09/01 02:56:52;;;;;;;16.55;8.88;;;;;;;19.00;90.67;98298.19;5044095;28;20083;-52
2021/09/01 02:59:18;;;;;;;16.15;9.00;;;;;;;19.06;90.51;98304.69;5045130;28;20048;-55
2021/09/01 03:01:44;;;;;;;21.63;9.65;;;;;;;19.13;90.27;98305.81;5045382;28;20040;-52
2021/09/01 03:04:11;;;;;;;18.73;8.75;;;;;;;19.17;89.90;98294.00;5036039;28;20045;-52
2021/09/01 03:06:36;;;;;;;18.42;9.18;;;;;;;19.23;89.65;98284.72;5012976;28;20505;-47
2021/09/01 03:09:03;;;;;;;22.08;9.90;;;;;;;19.28;90.15;98282.47;5025550;28;20044;-51
2021/09/01 03:11:28;;;;;;;16.55;9.85;;;;;;;19.31;89.98;98280.38;5030229;28;20049;-50
2021/09/01 03:13:54;;;;;;;16.65;9.32;;;;;;;19.33;90.35;98269.72;5032496;28;20052;-50
2021/09/01 03:16:20;;;;;;;20.45;10.30;;;;;;;19.16;90.46;98242.28;5031985;28;20037;-48
2021/09/01 03:18:46;;;;;;;17.85;9.48;;;;;;;19.39;90.22;98277.06;5030284;28;20083;-50
2021/09/01 03:21:12;;;;;;;33.13;9.85;;;;;;;19.40;90.31;98276.09;5029794;28;20037;-48
2021/09/01 03:23:38;;;;;;;23.65;9.73;;;;;;;19.29;90.54;98258.63;5030327;28;20052;-48
2021/09/01 03:26:05;;;;;;;16.88;8.95;;;;;;;19.42;90.61;98272.31;5031542;28;20524;-47
2021/09/01 03:28:30;;;;;;;27.30;10.38;;;;;;;19.45;90.54;98268.63;5030266;28;20175;-49
2021/09/01 03:30:56;;;;;;;21.40;9.77;;;;;;;19.45;90.40;98272.09;5032144;28;20095;-49
2021/09/01 03:33:22;;;;;;;18.70;11.20;;;;;;;19.50;90.04;98262.91;5032162;28;20127;-48
2021/09/01 03:35:47;;;;;;;24.90;10.00;;;;;;;19.53;89.42;98252.91;5029361;28;20052;-52
2021/09/01 03:38:15;;;;;;;25.88;10.27;;;;;;;19.60;88.97;98255.81;5031769;28;20041;-48
2021/09/01 03:40:41;;;;;;;22.33;12.82;;;;;;;19.44;88.29;98212.44;5031025;28;20128;-49
2021/09/01 03:43:06;;;;;;;23.23;12.70;;;;;;;19.65;88.82;98240.38;5031034;28;20124;-46
2021/09/01 03:45:32;;;;;;;17.75;9.63;;;;;;;19.68;89.07;98240.91;5031379;28;20528;-48
2021/09/01 03:47:58;;;;;;;19.98;10.05;;;;;;;19.68;89.27;98242.75;5031877;28;20584;-51
2021/09/01 03:50:25;;;;;;;17.70;9.40;;;;;;;19.70;88.99;98246.03;5031551;28;20429;-50
2021/09/01 03:52:51;;;;;;;25.05;10.68;;;;;;;19.74;88.92;98239.50;5030791;28;20057;-48
2021/09/01 03:55:16;;;;;;;31.63;12.05;;;;;;;19.76;88.25;98237.56;5031083;28;20045;-50
2021/09/01 03:57:42;;;;;;;29.40;11.85;;;;;;;19.78;87.67;98238.25;5030821;28;20049;-50
2021/09/01 04:00:08;;;;;;;23.45;13.00;;;;;;;19.80;85.78;98231.00;5030679;28;20048;-48
2021/09/01 04:02:37;;;;;;;;;;;;;;;19.81;85.74;98233.50;5030963;28;20410;-49
2021/09/01 04:05:03;;;;;;;23.73;11.85;;;;;;;19.83;85.33;98228.94;5013293;28;19917;-49
2021/09/01 04:07:29;;;;;;;26.00;13.65;;;;;;;19.86;85.55;98227.78;5012976;28;20162;-53
2021/09/01 04:09:56;;;;;;;27.20;14.63;;;;;;;19.90;86.00;98223.88;5030694;28;20087;-53
2021/09/01 04:12:22;;;;;;;29.30;12.15;;;;;;;19.92;86.20;98229.84;5030271;28;20781;-50
2021/09/01 04:14:47;;;;;;;19.92;10.15;;;;;;;19.97;86.04;98232.88;5031000;28;20413;-53
2021/09/01 04:17:13;;;;;;;27.65;11.60;;;;;;;20.02;85.50;98233.28;5029405;28;20041;-48
2021/09/01 04:19:39;;;;;;;20.05;11.35;;;;;;;20.01;84.02;98226.31;5028303;28;20037;-50
2021/09/01 04:22:04;;;;;;;24.00;13.68;;;;;;;20.05;83.21;98232.97;5030876;28;20034;-48
2021/09/01 04:24:31;;;;;;;22.27;12.38;;;;;;;20.11;83.52;98227.09;5029340;28;20041;-46
2021/09/01 04:27:00;;;;;;;24.15;12.07;;;;;;;20.12;83.15;98225.28;5030699;28;20406;-46
2021/09/01 04:29:25;;;;;;;18.25;10.73;;;;;;;20.13;82.70;98216.41;5030493;28;20068;-49
2021/09/01 04:31:51;;;;;;;21.23;11.57;;;;;;;20.09;82.05;98220.31;5030100;28;20091;-48
2021/09/01 04:34:17;;;;;;;23.35;13.10;;;;;;;20.09;81.82;98217.69;5025867;28;20041;-49
2021/09/01 04:36:42;;;;;;;23.95;12.50;;;;;;;20.13;81.97;98214.59;5010902;28;20038;-49
2021/09/01 04:39:08;;;;;;;24.92;12.10;;;;;;;20.16;81.43;98216.94;5026372;28;20041;-51
2021/09/01 04:41:34;;;;;;;27.05;11.80;;;;;;;20.21;80.99;98219.94;5029532;28;20114;-49
2021/09/01 04:44:00;;;;;;;24.38;11.23;;;;;;;20.13;81.08;98196.13;5029256;28;20148;-50
2021/09/01 04:46:26;;;;;;;23.13;12.45;;;;;;;20.23;80.98;98212.72;5029631;28;20067;-50
2021/09/01 04:48:51;;;;;;;18.42;11.43;;;;;;;20.22;81.68;98205.78;5030231;28;20521;-50
2021/09/01 04:51:18;;;;;;;18.83;10.77;;;;;;;20.19;80.72;98211.38;5029062;28;20052;-51
2021/09/01 04:53:44;;;;;;;18.23;10.50;;;;;;;20.15;79.35;98217.09;5028880;28;20053;-50
2021/09/01 04:56:10;;;;;;;14.90;9.50;;;;;;;20.08;77.97;98218.66;5028648;28;20049;-51
2021/09/01 04:58:35;;;;;;;20.05;9.13;;;;;;;20.01;77.23;98213.13;5028964;28;20053;-55
2021/09/01 05:01:01;;;;;;;17.48;9.63;;;;;;;19.94;77.22;98204.13;5027334;28;20057;-47
2021/09/01 05:03:27;;;;;;;18.00;9.02;;;;;;;19.85;77.13;98203.22;5029106;28;20132;-48
2021/09/01 05:05:52;;;;;;;15.43;9.85;;;;;;;19.83;78.05;98205.19;5028581;28;20523;-51
2021/09/01 05:08:18;;;;;;;20.95;10.38;;;;;;;19.57;82.37;98191.03;5028116;28;20060;-60
2021/09/01 05:10:44;;;;;;;20.75;11.60;;;;;;;19.13;87.93;98191.69;5027263;28;20073;-56
2021/09/01 05:13:09;;;;;;;17.17;10.60;;;;;;;18.82;90.19;98188.44;5028753;28;20132;-55
2021/09/01 05:15:35;;;;;;;20.92;11.18;;;;;;;18.66;91.95;98182.91;5028196;28;20049;-58
2021/09/01 05:18:01;;;;;;;22.73;12.50;;;;;;;18.64;93.64;98183.03;5029563;28;20045;-56
2021/09/01 05:20:26;;;;;;;25.27;13.00;;;;;;;18.68;95.48;98173.06;5027611;28;20531;-56
2021/09/01 05:23:02;;;;;;;23.60;12.40;;;;;;;18.76;96.93;98171.38;5029558;28;20394;-60
2021/09/01 05:25:30;;;;;;;19.80;12.25;;;;;;;18.74;98.36;98180.38;5027785;28;20049;-55
2021/09/01 05:27:56;;;;;;;25.98;13.95;;;;;;;18.74;99.10;98164.59;5028685;28;20037;-57
2021/09/01 05:30:22;;;;;;;22.58;12.55;;;;;;;18.81;100.00;98171.78;5028807;28;20048;-57
2021/09/01 05:32:49;;;;;;;22.85;13.55;;;;;;;18.87;100.00;98165.97;5029637;28;20033;-55
2021/09/01 05:35:15;;;;;;;23.48;13.90;;;;;;;18.94;100.00;98164.44;5016550;28;20429;-53
2021/09/01 05:37:42;;;;;;;24.15;12.95;;;;;;;18.99;100.00;98156.09;5009724;28;20042;-54
2021/09/01 05:40:09;;;;;;;22.48;13.77;;;;;;;18.99;100.00;98156.09;5019925;28;20090;-57
2021/09/01 05:42:35;;;;;;;20.35;13.10;;;;;;;19.09;100.00;98161.34;5008538;28;20049;-51
2021/09/01 05:45:02;;;;;;;19.85;10.98;;;;;;;19.09;100.00;98158.72;5009756;28;20045;-56
2021/09/01 05:47:28;;;;;;;19.38;11.75;;;;;;;19.06;99.08;98157.19;5009692;28;20145;-56
2021/09/01 05:49:56;;;;;;;17.65;11.23;;;;;;;19.09;98.02;98158.72;5026264;28;20040;-52
2021/09/01 05:52:23;;;;;;;26.20;19.13;;;;;;;19.17;97.47;98159.63;5030068;28;20068;-56
2021/09/01 05:54:50;;;;;;;19.10;10.98;;;;;;;19.20;96.09;98155.91;5029128;28;20045;-55
2021/09/01 05:57:38;;;;;;;19.52;10.98;;;;;;;19.23;94.90;98152.97;5029142;28;20033;-55
2021/09/01 06:00:13;;;;;;;31.23;15.23;;;;;;;19.30;93.83;98156.69;5026214;28;20168;-59
2021/09/01 06:03:03;;;;;;;16.45;10.77;;;;;;;19.40;93.27;98150.41;5022836;28;20259;-58
2021/09/01 06:05:28;;;;;;;18.05;10.52;;;;;;;19.42;90.85;98142.34;5028831;28;20044;-49
2021/09/01 06:07:56;;;;;;;21.55;11.70;;;;;;;19.48;90.02;98133.06;5028760;28;20049;-62
2021/09/01 06:10:31;;;;;;;18.52;11.65;;;;;;;19.60;89.99;98129.25;5029019;28;20048;-48
2021/09/01 06:13:05;;;;;;;15.10;10.18;;;;;;;19.72;89.87;98131.56;5025457;28;20072;-60
2021/09/01 06:15:31;;;;;;;16.98;10.80;;;;;;;19.79;88.66;98129.13;5025304;28;20124;-64
2021/09/01 06:17:59;;;;;;;19.73;11.35;;;;;;;19.87;87.74;98121.31;5027195;28;20033;-64
2021/09/01 06:20:25;;;;;;;17.42;11.27;;;;;;;19.94;87.88;98122.38;5028576;28;20143;-64
2021/09/01 06:22:52;;;;;;;19.05;11.65;;;;;;;20.05;88.19;98118.69;5027031;28;20136;-64
2021/09/01 06:25:17;;;;;;;21.27;12.23;;;;;;;20.09;86.70;98110.34;5028905;28;20037;-63
2021/09/01 06:27:43;;;;;;;16.38;11.27;;;;;;;20.13;85.97;98106.41;5028414;28;20048;-62
2021/09/01 06:30:09;;;;;;;23.00;12.52;;;;;;;20.19;85.51;98108.44;5027865;28;20421;-63
2021/09/01 06:32:35;;;;;;;19.35;12.25;;;;;;;20.28;85.51;98107.53;5025729;28;20501;-64
2021/09/01 06:35:01;;;;;;;19.88;11.68;;;;;;;20.27;84.45;98105.03;5024878;28;20103;-64
2021/09/01 06:37:27;;;;;;;16.70;11.15;;;;;;;20.20;83.28;98085.53;5026034;28;20064;-61
2021/09/01 06:39:53;;;;;;;20.52;11.65;;;;;;;20.16;82.53;98095.53;5031686;28;20639;-68
2021/09/01 06:42:20;;;;;;;20.95;10.90;;;;;;;20.20;82.23;98094.25;5028459;28;20460;-67
2021/09/01 06:44:46;;;;;;;24.60;11.48;;;;;;;20.17;81.25;98094.56;5031514;28;20481;-67
2021/09/01 06:47:12;;;;;;;19.10;10.60;;;;;;;20.14;80.68;98083.50;5031086;28;20053;-62
2021/09/01 06:49:37;;;;;;;17.90;11.45;;;;;;;20.25;80.17;98080.63;5032372;28;20124;-62
2021/09/01 06:52:04;;;;;;;18.42;10.48;;;;;;;20.24;78.65;98081.59;5030075;28;21047;-61
2021/09/01 06:54:29;;;;;;;20.65;11.88;;;;;;;20.22;77.70;98076.47;5028875;28;20459;-62
2021/09/01 06:56:55;;;;;;;24.83;11.68;;;;;;;20.04;77.39;98059.84;5029895;28;20052;-65
2021/09/01 06:59:21;;;;;;;19.42;11.18;;;;;;;20.12;77.48;98070.44;5032745;28;20098;-62
2021/09/01 07:01:47;;;;;;;19.13;10.85;;;;;;;20.09;76.49;98070.75;5028213;28;20037;-60
2021/09/01 07:04:12;;;;;;;16.02;10.70;;;;;;;20.13;76.08;98060.72;5027574;28;20052;-61
2021/09/01 07:06:38;;;;;;;17.48;10.98;;;;;;;20.23;75.85;98054.38;5031396;28;20132;-62
2021/09/01 07:09:05;;;;;;;21.70;11.88;;;;;;;20.40;75.49;98055.38;5032279;28;20037;-56
2021/09/01 07:11:30;;;;;;;19.50;12.00;;;;;;;20.54;74.70;98032.84;5030305;28;20147;-53
2021/09/01 07:13:56;;;;;;;20.67;11.85;;;;;;;20.86;73.82;98045.41;5030541;28;20131;-55
2021/09/01 07:16:22;;;;;;;19.67;11.23;;;;;;;20.75;72.55;98029.84;5031291;28;20045;-57
2021/09/01 07:18:47;;;;;;;16.88;11.38;;;;;;;20.90;72.37;98049.38;5030778;28;20136;-59
2021/09/01 07:21:13;;;;;;;24.92;11.90;;;;;;;20.99;72.17;98049.28;5031188;28;20045;-58
2021/09/01 07:23:39;;;;;;;17.65;11.88;;;;;;;20.98;71.70;98050.28;5030153;28;20037;-59
2021/09/01 07:26:05;;;;;;;17.58;11.60;;;;;;;21.02;71.56;98035.75;5029528;28;20104;-59
2021/09/01 07:28:31;;;;;;;21.52;12.27;;;;;;;21.12;71.26;98039.09;5054653;28;20088;-56
2021/09/01 07:30:56;;;;;;;18.95;11.73;;;;;;;21.20;71.39;98038.31;5026327;28;20119;-52
2021/09/01 07:33:22;;;;;;;19.88;11.63;;;;;;;21.27;71.66;98046.44;5030857;28;20517;-53
2021/09/01 07:35:48;;;;;;;25.27;17.23;;;;;;;21.36;71.45;98042.84;5015523;28;20042;-49
2021/09/01 07:38:14;;;;;;;21.55;11.38;;;;;;;21.39;71.00;98043.38;5031446;28;20041;-50
2021/09/01 07:40:41;;;;;;;21.90;11.73;;;;;;;21.52;70.63;98038.44;5031883;28;20073;-54
2021/09/01 07:43:07;;;;;;;22.02;11.80;;;;;;;21.61;70.06;98043.75;5029573;28;20533;-50
2021/09/01 07:45:33;;;;;;;19.25;12.07;;;;;;;21.73;69.63;98048.56;5031361;28;20045;-53
2021/09/01 07:47:59;;;;;;;17.02;11.68;;;;;;;21.58;69.55;98009.69;5027840;28;20041;-52
2021/09/01 07:50:28;;;;;;;14.93;9.80;;;;;;;21.76;68.93;98048.25;5024020;28;20402;-60
2021/09/01 07:52:54;;;;;;;17.80;9.77;;;;;;;21.71;67.97;98049.72;5027712;28;20049;-63
2021/09/01 07:55:20;;;;;;;21.98;10.65;;;;;;;21.65;67.59;98045.09;5031463;28;20148;-59
2021/09/01 07:57:46;;;;;;;18.08;11.02;;;;;;;21.75;67.82;98051.88;5029050;28;20141;-60
2021/09/01 08:00:13;;;;;;;19.85;11.10;;;;;;;21.85;67.94;98041.97;5027293;28;20131;-61
2021/09/01 08:02:39;;;;;;;23.08;11.18;;;;;;;21.79;68.15;98008.22;5030421;28;20542;-60
2021/09/01 08:05:06;;;;;;;20.00;10.50;;;;;;;22.03;68.37;98039.22;5026404;28;20231;-62
2021/09/01 08:07:31;;;;;;;24.85;10.25;;;;;;;22.11;68.60;98038.38;5015553;28;20038;-59
2021/09/01 08:09:57;;;;;;;19.40;10.18;;;;;;;22.19;68.45;98031.25;5058989;28;20114;-62
2021/09/01 08:12:23;;;;;;;16.98;8.98;;;;;;;22.22;67.95;98036.22;5030662;28;20045;-68
2021/09/01 08:14:48;;;;;;;19.67;9.60;;;;;;;22.24;67.29;98033.44;5031438;28;20041;-62
2021/09/01 08:17:15;;;;;;;18.23;9.75;;;;;;;22.23;66.83;98024.66;5027778;28;20049;-63
2021/09/01 08:19:42;;;;;;;15.52;8.95;;;;;;;22.25;66.95;98030.59;5030273;28;20045;-67
2021/09/01 08:22:08;;;;;;;21.60;11.45;;;;;;;22.32;66.67;98034.25;5030302;28;20087;-60
2021/09/01 08:24:37;;;;;;;17.02;10.80;;;;;;;22.71;65.59;98033.56;5029550;28;20497;-60
2021/09/01 08:27:03;;;;;;;;;;;;;;;22.83;65.62;98037.47;5033207;28;20072;-58
2021/09/01 08:29:28;;;;;;;22.58;12.82;;;;;;;22.97;65.26;98041.25;5029394;28;20035;-60
2021/09/01 08:31:54;;;;;;;15.23;9.43;;;;;;;23.13;65.10;98033.25;5026782;28;20045;-61
2021/09/01 08:34:20;;;;;;;17.20;9.73;;;;;;;23.35;64.45;98031.66;5023896;28;20034;-62
2021/09/01 08:36:46;;;;;;;15.93;10.23;;;;;;;24.04;61.86;98028.09;5011969;28;20041;-60
2021/09/01 08:39:12;;;;;;;15.48;9.45;;;;;;;24.48;60.45;98025.59;5027972;28;20037;-60
2021/09/01 08:41:38;;;;;;;16.92;9.65;;;;;;;24.51;59.92;98027.03;5028893;28;20491;-62
2021/09/01 08:44:04;;;;;;;14.55;9.55;;;;;;;24.58;59.76;98017.34;5029361;28;20067;-61
2021/09/01 08:46:33;;;;;;;14.77;9.30;;;;;;;24.73;59.54;98027.00;5029417;28;20049;-60
2021/09/01 08:49:02;;;;;;;14.40;8.68;;;;;;;24.91;59.32;98016.03;5028501;28;20045;-61
2021/09/01 08:51:29;;;;;;;13.48;8.30;;;;;;;25.07;58.32;98005.16;5029747;28;20041;-61
2021/09/01 08:53:56;;;;;;;17.65;8.73;;;;;;;25.21;56.75;98007.00;5028618;28;20041;-63
2021/09/01 08:56:23;;;;;;;13.95;9.07;;;;;;;25.53;56.33;98012.91;5030420;28;20060;-63
2021/09/01 08:58:49;;;;;;;11.45;7.45;;;;;;;25.70;54.59;98019.66;5030032;28;20041;-62
2021/09/01 09:01:41;;;;;;;10.68;7.30;;;;;;;25.64;53.79;98015.94;5029205;28;20037;-63
2021/09/01 09:04:30;;;;;;;11.43;7.82;;;;;;;25.96;52.91;97992.50;5028798;28;20128;-62
2021/09/01 09:07:01;;;;;;;10.88;5.65;;;;;;;27.49;48.33;98002.06;5044918;28;20164;-64
2021/09/01 09:09:32;;;;;;;14.50;6.85;;;;;;;26.75;48.63;98012.56;5015313;28;20532;-65
2021/09/01 09:11:59;;;;;;;12.15;6.60;;;;;;;25.73;50.84;98008.66;5024829;28;20517;-65
2021/09/01 09:14:29;;;;;;;13.32;8.63;;;;;;;25.63;52.04;98006.28;5030983;28;20084;-62
2021/09/01 09:17:18;;;;;;;17.33;6.75;;;;;;;25.31;52.17;97988.91;5029444;28;20421;-61
2021/09/01 09:19:54;;;;;;;12.77;6.35;;;;;;;25.36;52.33;98006.16;5028393;28;20052;-61
2021/09/01 09:22:33;;;;;;;9.82;5.28;;;;;;;24.95;51.56;98013.81;5028120;28;20026;-67
2021/09/01 09:25:14;;;;;;;10.27;5.70;;;;;;;24.48;52.33;98014.97;5030270;28;20095;-61
2021/09/01 09:27:46;;;;;;;10.00;5.70;;;;;;;24.18;52.97;98011.41;5029806;28;20064;-64
2021/09/01 09:30:39;;;;;;;10.68;5.30;;;;;;;23.83;54.08;98010.16;5028016;28;20049;-65
2021/09/01 09:33:10;;;;;;;15.27;5.93;;;;;;;23.49;55.09;98009.72;5025084;28;20037;-67
2021/09/01 09:35:48;;;;;;;9.07;5.30;;;;;;;23.16;56.20;98007.22;5025278;28;20469;-62
2021/09/01 09:38:15;;;;;;;11.35;5.38;;;;;;;23.15;56.26;97997.59;5028439;28;20049;-64
2021/09/01 09:40:41;;;;;;;14.32;6.10;;;;;;;23.20;56.26;97992.59;5027915;28;20453;-64
2021/09/01 09:43:14;;;;;;;9.23;6.10;;;;;;;23.23;56.78;97988.81;5025889;28;20167;-62
2021/09/01 09:45:40;;;;;;;10.02;5.25;;;;;;;23.46;56.22;97994.97;5026075;28;20045;-69
2021/09/01 09:48:06;;;;;;;9.70;5.70;;;;;;;23.85;55.40;97996.72;5027870;28;20095;-72
2021/09/01 09:50:31;;;;;;;10.98;5.97;;;;;;;24.27;54.31;97997.06;5020059;28;20502;-66
2021/09/01 09:52:57;;;;;;;9.80;5.45;;;;;;;24.37;53.56;97987.00;5040991;28;20148;-68
2021/09/01 09:55:23;;;;;;;10.00;5.75;;;;;;;23.77;55.03;97971.06;5008268;28;20048;-70
2021/09/01 09:57:49;;;;;;;10.13;5.57;;;;;;;23.58;55.89;97966.22;5029473;28;20508;-65
2021/09/01 10:00:16;;;;;;;9.07;5.47;;;;;;;23.50;55.84;97961.00;5026327;28;20060;-78
2021/09/01 10:02:43;;;;;;;10.15;5.75;;;;;;;23.33;56.63;97968.19;4991905;28;20136;-64
2021/09/01 10:05:13;;;;;;;14.05;6.35;;;;;;;23.13;57.54;97959.81;5028471;28;20049;-65
2021/09/01 10:07:40;;;;;;;8.52;5.25;;;;;;;22.73;58.20;97946.75;5025051;28;20152;-63
2021/09/01 10:10:09;;;;;;;13.15;6.35;;;;;;;22.40;59.44;97959.25;5028200;28;20513;-55
2021/09/01 10:12:43;;;;;;;13.65;6.20;;;;;;;21.95;60.57;97928.88;5028264;28;20052;-64
2021/09/01 10:15:12;;;;;;;11.80;6.07;;;;;;;22.23;60.41;97952.34;5031815;28;20045;-66
2021/09/01 10:17:40;;;;;;;9.20;5.90;;;;;;;22.12;60.92;97953.53;5028263;28;20048;-68
2021/09/01 10:20:08;;;;;;;11.35;5.80;;;;;;;22.06;61.14;97945.41;5031200;28;20091;-48
2021/09/01 10:22:34;;;;;;;12.57;5.75;;;;;;;21.89;62.00;97947.22;5030802;28;20040;-56
2021/09/01 10:24:59;;;;;;;12.57;6.07;;;;;;;22.03;62.08;97954.53;5031204;28;20491;-53
2021/09/01 10:27:28;;;;;;;8.15;5.55;;;;;;;21.85;62.69;97949.38;5031264;28;20037;-56
2021/09/01 10:30:05;;;;;;;10.82;4.97;;;;;;;21.66;63.63;97959.47;5031857;28;20130;-57
2021/09/01 10:32:45;;;;;;;11.88;6.10;;;;;;;21.54;64.15;97964.22;5029290;28;20072;-56
2021/09/01 10:35:16;;;;;;;11.90;5.82;;;;;;;21.33;65.70;97961.22;5019864;28;20050;-58
2021/09/01 10:37:46;;;;;;;9.40;5.72;;;;;;;21.41;65.75;97959.41;5031621;28;20045;-57
2021/09/01 10:40:15;;;;;;;8.95;5.35;;;;;;;21.61;65.13;97959.94;5030701;28;20354;-57
2021/09/01 10:42:42;;;;;;;15.27;6.53;;;;;;;21.66;65.04;97962.94;5029742;28;20037;-56
2021/09/01 10:45:19;;;;;;;15.70;6.95;;;;;;;21.87;64.57;97955.34;5030692;28;20053;-56
2021/09/01 10:47:51;;;;;;;9.93;5.38;;;;;;;21.81;64.54;97965.75;5031204;28;20127;-56
2021/09/01 10:50:18;;;;;;;8.88;5.95;;;;;;;21.48;65.90;97963.06;5011578;28;20037;-52
2021/09/01 10:53:11;;;;;;;12.45;5.85;;;;;;;21.24;66.88;97955.09;5029905;28;20136;-56
2021/09/01 10:56:02;;;;;;;10.10;5.70;;;;;;;21.38;66.61;97970.31;5029771;28;20136;-57
2021/09/01 10:58:35;;;;;;;10.70;5.93;;;;;;;21.38;66.71;97958.91;5030489;28;20056;-56
2021/09/01 11:01:21;;;;;;;10.85;5.70;;;;;;;21.50;66.52;97958.44;5030852;28;20045;-54
2021/09/01 11:03:52;;;;;;;11.40;5.80;;;;;;;21.43;66.77;97960.09;5031367;28;20452;-56
2021/09/01 11:06:18;;;;;;;12.02;6.05;;;;;;;21.34;67.82;97954.94;5030150;28;20093;-57
2021/09/01 11:09:04;;;;;;;10.82;6.03;;;;;;;21.38;68.29;97954.47;5031365;28;20557;-55
2021/09/01 11:11:55;;;;;;;9.23;6.00;;;;;;;21.57;67.92;97950.66;5031049;28;20053;-56
2021/09/01 11:14:31;;;;;;;10.43;6.47;;;;;;;21.67;67.96;97945.25;5029228;28;20067;-52
2021/09/01 11:17:01;;;;;;;9.00;5.93;;;;;;;21.74;68.07;97941.75;5024589;28;20052;-50
2021/09/01 11:19:27;;;;;;;15.30;7.13;;;;;;;21.59;68.41;97937.28;5032730;28;20037;-52
2021/09/01 11:21:55;;;;;;;12.77;7.03;;;;;;;21.59;68.67;97935.47;5027968;28;20087;-54
2021/09/01 11:24:21;;;;;;;11.40;6.90;;;;;;;21.65;68.82;97945.41;5022621;28;20042;-49